createdAt,value
2022-12-22T00:05:01.823Z,3567.52941
2022-12-22T00:10:03.442Z,3794
2022-12-22T00:15:05.101Z,3794
2022-12-22T00:20:06.921Z,3567.52941
2022-12-22T00:25:08.567Z,3567.52941
2022-12-22T00:30:10.671Z,3366.22222
2022-12-22T00:35:12.346Z,3366.22222
2022-12-22T00:40:14.003Z,3567.52941
2022-12-22T00:45:15.596Z,3567.52941
2022-12-22T00:50:17.550Z,3567.52941
2022-12-22T00:55:19.201Z,3567.52941
2022-12-22T01:00:20.986Z,3567.52941
2022-12-22T01:05:22.638Z,3366.22222
2022-12-22T01:10:24.298Z,3186.10526
2022-12-22T01:15:26.031Z,3366.22222
2022-12-22T01:20:27.872Z,3366.22222
2022-12-22T01:25:29.510Z,3366.22222
2022-12-22T01:30:31.221Z,3186.10526
2022-12-22T01:35:32.904Z,3366.22222
2022-12-22T01:40:34.552Z,3366.22222
2022-12-22T01:45:36.206Z,3366.22222
2022-12-22T01:50:37.848Z,3366.22222
2022-12-22T01:55:39.553Z,3366.22222
2022-12-22T02:00:41.191Z,3366.22222
2022-12-22T02:05:42.803Z,3366.22222
2022-12-22T02:10:44.551Z,3366.22222
2022-12-22T02:15:46.274Z,3567.52941
2022-12-22T02:20:47.936Z,3567.52941
2022-12-22T02:25:49.616Z,3567.52941
2022-12-22T02:30:51.311Z,3567.52941
2022-12-22T02:35:52.996Z,3366.22222
2022-12-22T02:40:54.777Z,3567.52941
2022-12-22T02:45:56.519Z,3567.52941
2022-12-22T02:50:58.136Z,3567.52941
2022-12-22T02:55:59.891Z,3567.52941
2022-12-22T03:01:01.698Z,3567.52941
2022-12-22T03:06:03.705Z,3794
2022-12-22T03:11:05.517Z,3794
2022-12-22T03:16:07.271Z,3794
2022-12-22T03:21:08.954Z,3567.52941
2022-12-22T03:26:10.716Z,3794
2022-12-22T03:31:12.532Z,3794
2022-12-22T03:36:14.319Z,4050.66667
2022-12-22T03:41:15.973Z,4050.66667
2022-12-22T03:46:17.799Z,3794
2022-12-22T03:51:19.645Z,3567.52941
2022-12-22T03:56:21.322Z,3794
2022-12-22T04:01:23.047Z,3794
2022-12-22T04:06:24.891Z,3794
2022-12-22T04:11:26.575Z,3794
2022-12-22T04:16:28.272Z,3794
2022-12-22T04:21:30.008Z,3567.52941
2022-12-22T04:26:31.666Z,3567.52941
2022-12-22T04:31:33.414Z,3794
2022-12-22T04:36:35.290Z,3794
2022-12-22T04:41:36.956Z,3567.52941
2022-12-22T04:46:38.718Z,3794
2022-12-22T04:51:40.317Z,3794
2022-12-22T04:56:41.965Z,3794
2022-12-22T05:01:43.784Z,3794
2022-12-22T05:06:45.557Z,3567.52941
2022-12-22T05:11:47.195Z,3794
2022-12-22T05:16:49.646Z,3794
2022-12-22T05:21:51.350Z,3794
2022-12-22T05:26:52.968Z,3794
2022-12-22T05:31:54.646Z,3794
2022-12-22T05:36:56.285Z,3794
2022-12-22T05:41:57.948Z,3794
2022-12-22T05:46:59.629Z,3794
2022-12-22T05:52:01.596Z,3794
2022-12-22T05:57:03.230Z,3794
2022-12-22T06:02:04.976Z,3794
2022-12-22T06:07:06.786Z,3794
2022-12-22T06:12:08.443Z,3794
2022-12-22T06:17:10.152Z,4050.66667
2022-12-22T06:22:12.047Z,3794
2022-12-22T06:27:13.681Z,3794
2022-12-22T06:32:15.328Z,4050.66667
2022-12-22T06:37:16.986Z,3794
2022-12-22T06:42:18.960Z,3794
2022-12-22T06:47:20.701Z,3794
2022-12-22T06:52:22.346Z,3794
2022-12-22T06:57:24.038Z,3794
2022-12-22T07:02:26.049Z,4050.66667
2022-12-22T07:07:27.886Z,3794
2022-12-22T07:12:29.830Z,3794
2022-12-22T07:17:31.460Z,3794
2022-12-22T07:22:33.284Z,3794
2022-12-22T07:27:34.917Z,3794
2022-12-22T07:32:36.813Z,3794
2022-12-22T07:37:38.481Z,3794
2022-12-22T07:42:40.213Z,3794
2022-12-22T07:47:42.004Z,3794
2022-12-22T07:52:43.620Z,4050.66667
2022-12-22T07:57:45.248Z,3794
2022-12-22T08:02:47.107Z,3794
2022-12-22T08:07:48.827Z,3794
2022-12-22T08:12:50.642Z,3794
2022-12-22T08:17:52.408Z,4050.66667
2022-12-22T08:22:53.965Z,4050.66667
2022-12-22T08:27:55.701Z,4050.66667
2022-12-22T08:32:57.464Z,3794
2022-12-22T08:37:59.344Z,3794
2022-12-22T08:43:00.987Z,3794
2022-12-22T08:48:02.653Z,4050.66667
2022-12-22T08:53:04.550Z,4050.66667
2022-12-22T08:58:06.217Z,4050.66667
2022-12-22T09:03:07.960Z,3794
2022-12-22T09:08:09.830Z,3794
2022-12-22T09:13:11.598Z,3794
2022-12-22T09:18:13.264Z,3567.52941
2022-12-22T09:23:15.287Z,3366.22222
2022-12-22T09:28:16.956Z,3567.52941
2022-12-22T09:33:18.615Z,3366.22222
2022-12-22T09:38:20.245Z,3567.52941
2022-12-22T09:43:21.889Z,4050.66667
2022-12-22T09:48:23.523Z,4050.66667
2022-12-22T09:53:25.207Z,4050.66667
2022-12-22T09:58:27.001Z,4050.66667
2022-12-22T10:03:28.894Z,4050.66667
2022-12-22T10:08:30.648Z,4050.66667
2022-12-22T10:13:32.328Z,4050.66667
2022-12-22T10:18:33.955Z,4050.66667
2022-12-22T10:23:35.587Z,4050.66667
2022-12-22T10:28:37.472Z,4050.66667
2022-12-22T10:33:45.947Z,4050.66667
2022-12-22T10:38:48.808Z,3794
2022-12-22T10:43:50.665Z,4050.66667
2022-12-22T10:48:52.338Z,4050.66667
2022-12-22T10:53:54.006Z,4050.66667
2022-12-22T10:58:55.759Z,4050.66667
2022-12-22T11:03:57.459Z,4050.66667
2022-12-22T11:09:31.417Z,4050.66667
2022-12-22T11:14:34.096Z,4050.66667
2022-12-22T11:19:36.013Z,4050.66667
2022-12-22T11:24:37.654Z,3794
2022-12-22T11:29:39.311Z,3794
2022-12-22T11:34:41.305Z,3794
2022-12-22T11:39:42.906Z,4050.66667
2022-12-22T11:44:44.555Z,4050.66667
2022-12-22T11:49:46.310Z,3794
2022-12-22T11:54:47.963Z,4050.66667
2022-12-22T11:59:50.129Z,3794
2022-12-22T12:04:51.821Z,4050.66667
2022-12-22T12:09:53.479Z,3794
2022-12-22T12:14:55.192Z,3567.52941
2022-12-22T12:19:56.838Z,3024
2022-12-22T12:24:58.508Z,3024
2022-12-22T12:30:35.779Z,3024
2022-12-22T12:35:39.151Z,3024
2022-12-22T12:40:40.835Z,3024
2022-12-22T12:45:42.585Z,2877.33333
2022-12-22T12:50:44.215Z,3024
2022-12-22T12:55:45.925Z,3024
2022-12-22T13:00:51.178Z,2877.33333
2022-12-22T13:05:55.710Z,2877.33333
2022-12-22T13:10:57.476Z,3024
2022-12-22T13:15:59.237Z,2877.33333
2022-12-22T13:21:33.821Z,3024
2022-12-22T13:26:52.323Z,3186.10526
2022-12-22T13:31:54.397Z,3024
2022-12-22T13:36:56.108Z,3024
2022-12-22T13:41:57.787Z,2622.26087
2022-12-22T13:46:59.885Z,2510.66667
2022-12-22T13:52:05.232Z,2510.66667
2022-12-22T13:57:07.649Z,2408
2022-12-22T14:02:09.330Z,2877.33333
2022-12-22T14:07:11.971Z,3024
2022-12-22T14:12:13.674Z,3366.22222
2022-12-22T14:17:15.317Z,3567.52941
2022-12-22T14:22:16.996Z,3567.52941
2022-12-22T14:27:18.739Z,3366.22222
2022-12-22T14:32:20.631Z,2744
2022-12-22T14:37:25.720Z,3186.10526
2022-12-22T14:42:32.635Z,3186.10526
2022-12-22T14:47:34.323Z,2225.48148
2022-12-22T14:52:36.070Z,1997.33333
2022-12-22T14:57:37.776Z,2144
2022-12-22T15:02:40.506Z,1997.33333
2022-12-22T15:12:55.807Z,1704
2022-12-22T15:17:57.486Z,489.13274
2022-12-22T15:22:59.367Z,891.69231
2022-12-22T15:28:01.031Z,1151.84314
2022-12-22T15:33:02.854Z,1283.13043
2022-12-22T15:38:04.636Z,1376.55814
2022-12-22T15:43:09.985Z,1376.55814
2022-12-22T15:48:19.322Z,1523.48718
2022-12-22T15:53:20.992Z,1523.48718
2022-12-22T15:58:22.655Z,1484
2022-12-22T16:03:24.707Z,1565.05263
2022-12-22T16:08:26.550Z,1565.05263
2022-12-22T16:13:28.809Z,1523.48718
2022-12-22T16:18:30.833Z,1655.11111
2022-12-22T16:23:32.578Z,1655.11111
2022-12-22T16:28:34.274Z,1704
2022-12-22T16:33:36.011Z,1704
2022-12-22T16:38:37.700Z,1755.76471
2022-12-22T16:50:51.114Z,1810.66667
2022-12-22T16:55:52.749Z,2313.23077
2022-12-22T17:00:54.443Z,2877.33333
2022-12-22T17:05:56.182Z,2877.33333
2022-12-22T17:10:58.069Z,2622.26087
2022-12-22T17:15:59.874Z,3024
2022-12-22T17:21:01.564Z,1227.33333
2022-12-22T17:26:03.209Z,1227.33333
2022-12-22T17:31:05.003Z,2068.13793
2022-12-22T17:36:06.777Z,2622.26087
2022-12-22T17:41:08.389Z,2622.26087
2022-12-22T17:46:10.128Z,2744
2022-12-22T17:51:11.854Z,2877.33333
2022-12-22T17:56:13.554Z,3024
2022-12-22T18:01:15.443Z,3024
2022-12-22T18:06:18.279Z,3186.10526
2022-12-22T18:11:20.109Z,3366.22222
2022-12-22T18:16:22.004Z,3567.52941
2022-12-22T18:21:23.785Z,3567.52941
2022-12-22T18:26:25.503Z,3567.52941
2022-12-22T18:31:27.237Z,3366.22222
2022-12-22T18:36:28.965Z,3567.52941
2022-12-22T18:41:30.602Z,3794
2022-12-22T18:46:32.335Z,3794
2022-12-22T18:51:34.086Z,3794
2022-12-22T18:56:35.858Z,4050.66667
2022-12-22T19:01:37.660Z,4050.66667
2022-12-22T19:06:39.536Z,4050.66667
2022-12-22T19:11:41.441Z,4050.66667
2022-12-22T19:16:43.330Z,4050.66667
2022-12-22T19:21:45.014Z,4344
2022-12-22T19:26:46.874Z,4050.66667
2022-12-22T19:31:48.769Z,4344
2022-12-22T19:36:50.450Z,4344
2022-12-22T19:41:52.195Z,4050.66667
2022-12-22T19:46:54.150Z,4050.66667
2022-12-22T19:51:55.859Z,4050.66667
2022-12-22T19:56:57.529Z,4050.66667
2022-12-22T20:01:59.394Z,4344
2022-12-22T20:07:01.195Z,4344
2022-12-22T20:12:02.962Z,4344
2022-12-22T20:17:04.678Z,4344
2022-12-22T20:22:06.397Z,4344
2022-12-22T20:27:07.997Z,4344
2022-12-22T20:32:09.701Z,4344
2022-12-22T20:37:11.404Z,4344
2022-12-22T20:42:13.044Z,4344
2022-12-22T20:47:21.803Z,4344
2022-12-22T20:52:24.124Z,4344
2022-12-22T20:57:25.799Z,4344
2022-12-22T21:02:28.194Z,4344
2022-12-22T21:07:30.427Z,4344
2022-12-22T21:12:32.143Z,4344
2022-12-22T21:17:33.873Z,4344
2022-12-22T21:22:35.891Z,4344
2022-12-22T21:27:37.560Z,4344
2022-12-22T21:32:39.224Z,4344
2022-12-22T21:37:40.909Z,4344
2022-12-22T21:42:42.542Z,4050.66667
2022-12-22T21:47:44.223Z,4344
2022-12-22T21:52:45.871Z,4344
2022-12-22T21:57:47.510Z,4344
2022-12-22T22:02:49.363Z,4050.66667
2022-12-22T22:07:51.140Z,4050.66667
2022-12-22T22:12:52.821Z,4344
2022-12-22T22:17:54.531Z,3186.10526
2022-12-22T22:22:56.263Z,2622.26087
2022-12-22T22:27:58.038Z,2510.66667
2022-12-22T22:32:59.773Z,2744
2022-12-22T22:38:01.465Z,3024
2022-12-22T22:43:03.108Z,2877.33333
2022-12-22T22:48:10.508Z,3024
2022-12-22T22:53:12.877Z,3366.22222
2022-12-22T22:58:14.668Z,3186.10526
2022-12-22T23:03:16.844Z,3567.52941
2022-12-22T23:08:18.749Z,3567.52941
2022-12-22T23:13:20.566Z,3567.52941
2022-12-22T23:18:22.283Z,3567.52941
2022-12-22T23:23:23.901Z,3024
2022-12-22T23:28:25.534Z,3186.10526
2022-12-22T23:33:27.185Z,3366.22222
2022-12-22T23:38:28.845Z,2622.26087
2022-12-22T23:43:30.501Z,2510.66667
2022-12-22T23:48:32.166Z,2225.48148
2022-12-22T23:53:33.881Z,2144
2022-12-22T23:58:35.569Z,2144
